Time;durP1;ratioP1;P1;durP2;ratioP2;P2;SDS_P1;SDS_P2;PMS_P1;PMS_P2;Temp;Humidity;BMP_temperature;BMP_pressure;BME280_temperature;BME280_humidity;BME280_pressure;Samples;Min_cycle;Max_cycle;Signal;HPM_P1;HPM_P2
2023/03/29 00:00:19;;;;;;;4.72;2.80;;;5.50;99.90;;;;;;5104085;28;20036;-85
2023/03/29 00:02:47;;;;;;;4.53;2.90;;;5.40;99.90;;;;;;5086353;28;20107;-84
2023/03/29 00:05:14;;;;;;;5.35;2.80;;;5.40;99.90;;;;;;5110368;28;20157;-84
2023/03/29 00:07:41;;;;;;;5.47;2.80;;;5.40;99.90;;;;;;5102322;28;20036;-84
2023/03/29 00:10:09;;;;;;;6.18;3.30;;;5.40;99.90;;;;;;5132919;27;20031;-85
2023/03/29 00:12:36;;;;;;;4.88;2.70;;;5.40;99.90;;;;;;5106033;28;20036;-84
2023/03/29 00:15:03;;;;;;;4.28;2.90;;;5.40;99.90;;;;;;5107084;28;20055;-84
2023/03/29 00:17:29;;;;;;;7.20;3.28;;;5.40;99.90;;;;;;5095068;28;20032;-85
2023/03/29 00:19:54;;;;;;;5.05;2.95;;;5.40;99.90;;;;;;5109919;28;20035;-85
2023/03/29 00:22:20;;;;;;;5.53;2.72;;;5.40;99.90;;;;;;5107831;28;20046;-84
2023/03/29 00:24:47;;;;;;;4.30;2.83;;;5.30;99.90;;;;;;5096252;28;20027;-84
2023/03/29 00:27:15;;;;;;;5.38;2.85;;;5.40;99.90;;;;;;5093349;28;20089;-84
2023/03/29 00:29:40;;;;;;;4.05;2.60;;;5.30;99.90;;;;;;5108899;28;20406;-85
2023/03/29 00:32:06;;;;;;;3.97;2.88;;;5.40;99.90;;;;;;5114362;28;20028;-85
2023/03/29 00:34:35;;;;;;;6.63;2.72;;;5.40;99.90;;;;;;5107949;28;20041;-84
2023/03/29 00:37:01;;;;;;;4.85;2.53;;;5.40;99.90;;;;;;5113781;28;20066;-84
2023/03/29 00:39:28;;;;;;;7.30;2.80;;;5.40;99.90;;;;;;5093495;28;20395;-84
2023/03/29 00:41:54;;;;;;;5.30;2.88;;;5.30;99.90;;;;;;5108571;28;20035;-84
2023/03/29 00:44:54;;;;;;;5.80;2.78;;;5.30;99.90;;;;;;5093109;28;20055;-86
2023/03/29 00:47:31;;;;;;;5.40;2.45;;;5.30;99.90;;;;;;5107294;28;20044;-85
2023/03/29 00:50:03;;;;;;;4.63;2.90;;;5.30;99.90;;;;;;5095739;28;20035;-84
2023/03/29 00:52:30;;;;;;;5.95;2.83;;;5.40;99.90;;;;;;5107360;28;20043;-84
2023/03/29 00:55:00;;;;;;;4.40;2.63;;;5.40;99.90;;;;;;5093018;28;20032;-84
2023/03/29 00:57:27;;;;;;;6.65;2.97;;;5.30;99.90;;;;;;5091861;28;20092;-86
2023/03/29 00:59:55;;;;;;;5.93;3.10;;;5.30;99.90;;;;;;5106212;28;20063;-85
2023/03/29 01:02:24;;;;;;;5.05;2.50;;;5.40;99.90;;;;;;5109553;28;20118;-85
2023/03/29 01:05:07;;;;;;;7.38;3.30;;;5.30;99.90;;;;;;5111516;28;20103;-85
2023/03/29 01:07:48;;;;;;;4.43;2.75;;;5.40;99.90;;;;;;5091846;28;20027;-85
2023/03/29 01:10:18;;;;;;;5.20;2.83;;;5.30;99.90;;;;;;5108123;28;20035;-85
2023/03/29 01:12:52;;;;;;;6.32;2.80;;;5.30;99.90;;;;;;5107116;28;20050;-84
2023/03/29 01:15:22;;;;;;;7.43;3.33;;;5.30;99.90;;;;;;5112487;28;20039;-85
2023/03/29 01:17:49;;;;;;;5.15;2.67;;;5.30;99.90;;;;;;5109217;28;20082;-84
2023/03/29 01:20:54;;;;;;;4.82;2.97;;;5.30;99.90;;;;;;5106263;28;20032;-84
2023/03/29 01:24:07;;;;;;;4.78;2.65;;;5.30;99.90;;;;;;5096979;28;20082;-85
2023/03/29 01:26:54;;;;;;;4.30;2.50;;;5.40;99.90;;;;;;5067883;28;20525;-85
2023/03/29 01:29:30;;;;;;;7.50;2.88;;;5.30;99.90;;;;;;5088615;28;20035;-84
2023/03/29 01:32:02;;;;;;;5.82;2.72;;;5.30;99.90;;;;;;5110956;28;20410;-85
2023/03/29 01:35:09;;;;;;;4.47;2.83;;;5.30;99.90;;;;;;5090672;28;20063;-85
2023/03/29 01:38:00;;;;;;;4.35;2.80;;;5.30;99.90;;;;;;5083310;28;20048;-85
2023/03/29 01:40:27;;;;;;;4.38;2.90;;;5.30;99.90;;;;;;5084295;28;20563;-85
2023/03/29 01:43:04;;;;;;;6.47;2.90;;;5.30;99.90;;;;;;5104032;28;20072;-85
2023/03/29 01:45:39;;;;;;;6.03;3.05;;;5.30;99.90;;;;;;5106419;28;20165;-84
2023/03/29 01:48:08;;;;;;;5.40;3.08;;;5.30;99.90;;;;;;5128484;27;20052;-85
2023/03/29 01:50:47;;;;;;;4.00;2.78;;;5.30;99.90;;;;;;5095989;28;20035;-85
2023/03/29 01:53:26;;;;;;;6.65;2.80;;;5.20;99.90;;;;;;5105343;28;20067;-82
2023/03/29 01:55:55;;;;;;;5.43;2.90;;;5.30;99.90;;;;;;5112192;28;20116;-82
2023/03/29 01:58:26;;;;;;;6.95;3.30;;;5.30;99.90;;;;;;5108125;28;20435;-82
2023/03/29 02:00:55;;;;;;;6.50;3.15;;;5.30;99.90;;;;;;5107106;28;20065;-83
2023/03/29 02:03:29;;;;;;;5.78;3.05;;;5.30;99.90;;;;;;5109876;28;20607;-82
2023/03/29 02:05:58;;;;;;;6.07;3.22;;;5.30;99.90;;;;;;5106503;28;20028;-83
2023/03/29 02:08:25;;;;;;;5.55;3.50;;;5.30;99.90;;;;;;5091225;28;20032;-85
2023/03/29 02:10:51;;;;;;;6.55;3.33;;;5.20;99.90;;;;;;5091530;28;20467;-85
2023/03/29 02:13:17;;;;;;;5.40;3.08;;;5.30;99.90;;;;;;5111486;28;20444;-85
2023/03/29 02:15:44;;;;;;;7.25;3.75;;;5.30;99.90;;;;;;5092000;28;20039;-84
2023/03/29 02:18:10;;;;;;;11.32;3.92;;;5.20;99.90;;;;;;5106734;28;20031;-86
2023/03/29 02:20:39;;;;;;;8.30;3.70;;;5.30;99.90;;;;;;5105203;28;20032;-85
2023/03/29 02:23:20;;;;;;;6.85;3.45;;;5.30;99.90;;;;;;5112066;28;20371;-85
2023/03/29 02:25:49;;;;;;;6.45;3.78;;;5.20;99.90;;;;;;5103722;28;20043;-85
2023/03/29 02:28:15;;;;;;;6.65;3.70;;;5.20;99.90;;;;;;5107628;28;20031;-85
2023/03/29 02:30:43;;;;;;;5.20;3.70;;;5.20;99.90;;;;;;5106556;28;20072;-85
2023/03/29 02:33:16;;;;;;;5.85;3.70;;;5.20;99.90;;;;;;5102542;28;20039;-85
2023/03/29 02:35:52;;;;;;;5.97;4.30;;;5.20;99.90;;;;;;5107355;28;20067;-85
2023/03/29 02:38:20;;;;;;;6.72;4.30;;;5.20;99.90;;;;;;5111269;28;20506;-86
2023/03/29 02:40:46;;;;;;;6.00;3.70;;;5.30;99.90;;;;;;5126056;27;20035;-85
2023/03/29 02:43:14;;;;;;;6.10;4.25;;;5.20;99.90;;;;;;5105891;28;20027;-86
2023/03/29 02:45:41;;;;;;;5.28;3.85;;;5.30;99.90;;;;;;5105673;28;20161;-85
2023/03/29 02:48:10;;;;;;;6.82;3.70;;;5.20;99.90;;;;;;5103206;28;20502;-85
2023/03/29 02:50:38;;;;;;;8.13;3.97;;;5.30;99.90;;;;;;5087171;28;20379;-85
2023/03/29 02:53:12;;;;;;;7.43;4.18;;;5.30;99.90;;;;;;5107786;28;20032;-85
2023/03/29 02:55:37;;;;;;;8.07;4.20;;;5.30;99.90;;;;;;5107513;28;20089;-85
2023/03/29 02:58:07;;;;;;;5.82;4.07;;;5.30;99.90;;;;;;5106542;28;20148;-85
2023/03/29 03:00:38;;;;;;;6.88;4.18;;;5.20;99.90;;;;;;5107188;28;20036;-86
2023/03/29 03:03:05;;;;;;;6.72;4.22;;;5.30;99.90;;;;;;5109968;28;20034;-84
2023/03/29 03:05:31;;;;;;;7.18;4.00;;;5.30;99.90;;;;;;5106215;28;20035;-85
2023/03/29 03:07:57;;;;;;;7.38;4.18;;;5.20;99.90;;;;;;5103593;28;20399;-85
2023/03/29 03:10:23;;;;;;;7.50;4.53;;;5.30;99.90;;;;;;5107626;28;20031;-85
2023/03/29 03:12:48;;;;;;;8.30;4.40;;;5.20;99.90;;;;;;5089473;28;20039;-85
2023/03/29 03:15:14;;;;;;;6.80;4.18;;;5.30;99.90;;;;;;5087671;28;21795;-86
2023/03/29 03:17:39;;;;;;;6.70;4.18;;;5.30;99.90;;;;;;5104892;28;20453;-85
2023/03/29 03:20:13;;;;;;;8.05;4.25;;;5.30;99.90;;;;;;5106743;28;20028;-85
2023/03/29 03:22:40;;;;;;;;;;;5.30;99.90;;;;;;5106067;28;20062;-84
2023/03/29 03:25:08;;;;;;;7.05;4.30;;;5.30;99.90;;;;;;5109222;28;19961;-85
2023/03/29 03:27:35;;;;;;;6.75;4.25;;;5.30;99.90;;;;;;5089431;28;20039;-85
2023/03/29 03:30:04;;;;;;;6.82;4.47;;;5.30;99.90;;;;;;5109106;28;20047;-85
2023/03/29 03:32:30;;;;;;;9.85;4.57;;;5.30;99.90;;;;;;5106139;28;20487;-85
2023/03/29 03:34:56;;;;;;;6.90;4.50;;;5.30;99.90;;;;;;5105588;28;20114;-85
2023/03/29 03:37:22;;;;;;;7.95;4.75;;;5.30;99.90;;;;;;5087831;28;20122;-85
2023/03/29 03:39:47;;;;;;;8.52;4.35;;;5.40;99.90;;;;;;5107556;28;20035;-85
2023/03/29 03:42:13;;;;;;;9.73;4.90;;;5.30;99.90;;;;;;5109667;28;20038;-85
2023/03/29 03:44:38;;;;;;;5.43;4.03;;;5.30;99.90;;;;;;5124026;27;20039;-85
2023/03/29 03:47:05;;;;;;;6.97;4.50;;;5.30;99.90;;;;;;5136846;27;20031;-85
2023/03/29 03:49:31;;;;;;;6.15;4.60;;;5.30;99.90;;;;;;5102462;28;20040;-85
2023/03/29 03:51:57;;;;;;;10.27;5.03;;;5.30;99.90;;;;;;5105687;28;20539;-85
2023/03/29 03:54:23;;;;;;;9.15;5.00;;;5.30;99.90;;;;;;5104990;28;20081;-84
2023/03/29 03:56:48;;;;;;;6.80;4.38;;;5.30;99.90;;;;;;5103248;28;20040;-85
2023/03/29 03:59:14;;;;;;;7.80;4.40;;;5.30;99.90;;;;;;5102967;28;20038;-85
2023/03/29 04:01:43;;;;;;;7.57;4.35;;;5.30;99.90;;;;;;5093506;28;20035;-84
2023/03/29 04:04:09;;;;;;;7.45;4.50;;;5.30;99.90;;;;;;5105780;28;20071;-85
2023/03/29 04:06:36;;;;;;;8.50;4.45;;;5.40;99.90;;;;;;5105039;28;20070;-85
2023/03/29 04:09:03;;;;;;;8.63;4.75;;;5.40;99.90;;;;;;5090879;28;20131;-85
2023/03/29 04:11:28;;;;;;;8.93;4.72;;;5.40;99.90;;;;;;5105324;28;20495;-85
2023/03/29 04:13:54;;;;;;;7.00;4.88;;;5.40;99.90;;;;;;5101964;28;20046;-85
2023/03/29 04:16:20;;;;;;;9.13;4.80;;;5.40;99.90;;;;;;5106098;28;20048;-86
2023/03/29 04:18:45;;;;;;;7.85;4.60;;;5.40;99.90;;;;;;5089080;28;20031;-84
2023/03/29 04:21:11;;;;;;;9.38;5.13;;;5.40;99.90;;;;;;5107135;28;20040;-85
2023/03/29 04:23:36;;;;;;;7.78;4.90;;;5.40;99.90;;;;;;5128589;28;20035;-84
2023/03/29 04:26:02;;;;;;;7.88;4.93;;;5.40;99.90;;;;;;5105155;28;20032;-84
2023/03/29 04:28:28;;;;;;;8.40;4.88;;;5.40;99.90;;;;;;5106436;28;20399;-85
2023/03/29 04:30:53;;;;;;;12.00;5.15;;;5.40;99.90;;;;;;5101567;28;20039;-85
2023/03/29 04:33:19;;;;;;;9.27;4.97;;;5.40;99.90;;;;;;5106288;28;20035;-85
2023/03/29 04:35:45;;;;;;;7.93;5.22;;;5.40;99.90;;;;;;5113019;27;20028;-85
2023/03/29 04:38:11;;;;;;;10.05;4.85;;;5.50;99.90;;;;;;5107421;28;20092;-85
2023/03/29 04:40:37;;;;;;;10.55;5.07;;;5.40;99.90;;;;;;5134400;27;20110;-84
2023/03/29 04:43:03;;;;;;;10.95;5.80;;;5.40;99.90;;;;;;5091589;28;20548;-85
2023/03/29 04:45:28;;;;;;;9.48;5.55;;;5.40;99.90;;;;;;5094283;28;20061;-85
2023/03/29 04:48:00;;;;;;;7.03;4.70;;;5.40;99.90;;;;;;5108945;28;20039;-85
2023/03/29 04:50:27;;;;;;;7.65;4.78;;;5.50;99.90;;;;;;5107684;28;20403;-85
2023/03/29 04:52:52;;;;;;;8.02;5.18;;;5.40;99.90;;;;;;5106402;28;20038;-84
2023/03/29 04:55:18;;;;;;;6.93;5.00;;;5.50;99.90;;;;;;5105923;28;20039;-85
2023/03/29 04:57:43;;;;;;;9.30;4.85;;;5.50;99.90;;;;;;5113981;28;20110;-86
2023/03/29 05:00:14;;;;;;;7.30;4.88;;;5.40;99.90;;;;;;5111704;28;20081;-85
2023/03/29 05:02:41;;;;;;;9.25;5.78;;;5.50;99.90;;;;;;5111688;28;20036;-85
2023/03/29 05:05:08;;;;;;;8.13;5.15;;;5.50;99.90;;;;;;5110661;27;20051;-85
2023/03/29 05:07:34;;;;;;;9.25;5.75;;;5.50;99.90;;;;;;5113373;27;20032;-85
2023/03/29 05:10:00;;;;;;;9.85;4.90;;;5.50;99.90;;;;;;5110077;27;20044;-85
2023/03/29 05:12:25;;;;;;;9.35;5.07;;;5.50;99.90;;;;;;5111705;27;20040;-85
2023/03/29 05:14:51;;;;;;;8.52;5.35;;;5.60;99.90;;;;;;5103723;28;20043;-85
2023/03/29 05:17:17;;;;;;;8.73;5.40;;;5.60;99.90;;;;;;5108714;28;20124;-86
2023/03/29 05:19:42;;;;;;;9.45;5.55;;;5.50;99.90;;;;;;5142723;27;20058;-85
2023/03/29 05:22:08;;;;;;;10.55;5.63;;;5.50;99.90;;;;;;5097880;28;20177;-84
2023/03/29 05:24:34;;;;;;;9.88;5.45;;;5.50;99.90;;;;;;5093470;27;20463;-86
2023/03/29 05:26:59;;;;;;;8.60;5.45;;;5.50;99.90;;;;;;5087157;28;20083;-85
2023/03/29 05:29:25;;;;;;;7.97;5.72;;;5.50;99.90;;;;;;5088342;28;20035;-85
2023/03/29 05:31:51;;;;;;;10.27;5.70;;;5.60;99.90;;;;;;5103118;28;20400;-86
2023/03/29 05:34:17;;;;;;;9.52;5.90;;;5.50;99.90;;;;;;5090463;28;20039;-86
2023/03/29 05:36:46;;;;;;;10.48;5.78;;;5.60;99.90;;;;;;5108595;28;20048;-85
2023/03/29 05:39:11;;;;;;;9.65;5.60;;;5.50;99.90;;;;;;5110752;28;20069;-85
2023/03/29 05:41:37;;;;;;;10.57;6.00;;;5.60;99.90;;;;;;5125922;27;20031;-85
2023/03/29 05:44:03;;;;;;;9.68;5.97;;;6.10;99.90;;;;;;5104805;28;20039;-86
2023/03/29 05:46:28;;;;;;;9.63;5.55;;;5.60;99.90;;;;;;5088962;28;20042;-86
2023/03/29 05:48:54;;;;;;;11.52;5.88;;;5.60;99.90;;;;;;5094605;27;20432;-85
2023/03/29 05:51:23;;;;;;;10.30;5.80;;;5.60;99.90;;;;;;5117192;27;20035;-86
2023/03/29 05:53:50;;;;;;;9.93;5.95;;;5.60;99.90;;;;;;5106156;27;20043;-86
2023/03/29 05:56:15;;;;;;;10.23;5.97;;;5.60;99.90;;;;;;5117620;27;20036;-86
2023/03/29 05:58:41;;;;;;;9.00;6.07;;;5.60;99.90;;;;;;5092185;28;20028;-86
2023/03/29 06:01:13;;;;;;;8.32;6.15;;;5.70;99.90;;;;;;5125139;27;20081;-85
2023/03/29 06:03:39;;;;;;;10.10;6.40;;;5.70;99.90;;;;;;5108187;28;20027;-85
2023/03/29 06:06:05;;;;;;;9.60;6.20;;;5.70;99.90;;;;;;5138014;27;20126;-85
2023/03/29 06:08:32;;;;;;;10.48;6.70;;;5.70;99.90;;;;;;5101050;28;20036;-85
2023/03/29 06:11:00;;;;;;;10.23;6.63;;;5.70;99.90;;;;;;5110303;27;20044;-85
2023/03/29 06:13:27;;;;;;;11.73;7.00;;;5.70;99.90;;;;;;5108494;27;20111;-85
2023/03/29 06:15:53;;;;;;;10.95;6.82;;;5.70;99.90;;;;;;5096051;27;20051;-85
2023/03/29 06:18:22;;;;;;;10.95;6.57;;;5.70;99.90;;;;;;5095333;28;20032;-86
2023/03/29 06:20:50;;;;;;;10.68;6.65;;;5.70;99.90;;;;;;5108138;28;20036;-86
2023/03/29 06:23:16;;;;;;;9.48;6.85;;;5.70;99.90;;;;;;5109881;28;20616;-85
2023/03/29 06:25:43;;;;;;;10.27;7.13;;;5.60;99.90;;;;;;5084484;28;20545;-85
2023/03/29 06:28:10;;;;;;;12.93;6.68;;;5.70;99.90;;;;;;5103722;27;20031;-85
2023/03/29 06:30:37;;;;;;;10.05;6.60;;;5.70;99.90;;;;;;5094723;28;20399;-84
2023/03/29 06:33:05;;;;;;;11.57;7.85;;;5.80;99.90;;;;;;5092924;28;20575;-86
2023/03/29 06:35:30;;;;;;;10.55;6.97;;;5.80;99.90;;;;;;5107234;27;20036;-84
2023/03/29 06:37:56;;;;;;;12.85;7.55;;;5.80;99.90;;;;;;5103410;28;20042;-85
2023/03/29 06:40:21;;;;;;;11.50;7.05;;;5.80;99.90;;;;;;5132723;27;20034;-85
2023/03/29 06:42:47;;;;;;;11.20;6.80;;;5.80;99.90;;;;;;5091507;28;20032;-85
2023/03/29 06:45:13;;;;;;;11.23;7.97;;;5.80;99.90;;;;;;5104727;28;20035;-85
2023/03/29 06:47:39;;;;;;;11.35;7.47;;;5.80;99.90;;;;;;5092814;28;20061;-85
2023/03/29 06:50:07;;;;;;;13.90;7.30;;;5.80;99.90;;;;;;5103943;28;20031;-85
2023/03/29 06:52:32;;;;;;;11.45;7.57;;;5.90;99.90;;;;;;5085464;28;20104;-84
2023/03/29 06:55:00;;;;;;;11.93;7.53;;;5.90;99.90;;;;;;5110171;28;20036;-86
2023/03/29 06:57:27;;;;;;;13.20;7.45;;;5.90;99.90;;;;;;5095177;28;20415;-84
2023/03/29 06:59:53;;;;;;;11.70;7.32;;;5.90;99.90;;;;;;5111219;27;20039;-84
2023/03/29 07:02:19;;;;;;;11.38;7.75;;;6.00;99.90;;;;;;5094701;28;20376;-86
2023/03/29 07:04:44;;;;;;;13.15;8.15;;;6.00;99.90;;;;;;5092355;28;20028;-85
2023/03/29 07:07:18;;;;;;;12.57;7.88;;;6.00;99.90;;;;;;5099205;28;20047;-85
2023/03/29 07:09:52;;;;;;;14.38;7.57;;;6.00;99.90;;;;;;5094785;27;20059;-85
2023/03/29 07:12:20;;;;;;;11.07;7.28;;;6.00;99.90;;;;;;5106531;28;20499;-85
2023/03/29 07:14:46;;;;;;;15.13;7.38;;;6.10;99.90;;;;;;5104453;28;20040;-85
2023/03/29 07:17:12;;;;;;;13.45;8.02;;;6.20;99.90;;;;;;5091695;28;20043;-85
2023/03/29 07:19:38;;;;;;;13.02;8.23;;;6.20;99.90;;;;;;5088982;28;21856;-85
2023/03/29 07:22:03;;;;;;;12.18;7.45;;;6.30;99.90;;;;;;5137185;27;20036;-85
2023/03/29 07:24:29;;;;;;;12.60;7.88;;;6.40;99.90;;;;;;5106250;28;20513;-85
2023/03/29 07:26:54;;;;;;;11.48;7.75;;;6.50;99.90;;;;;;5105997;28;20031;-85
2023/03/29 07:29:20;;;;;;;10.88;7.32;;;6.50;99.90;;;;;;5104385;27;20096;-85
2023/03/29 07:31:45;;;;;;;11.15;7.72;;;6.50;99.90;;;;;;5089470;28;20059;-85
2023/03/29 07:34:11;;;;;;;11.85;8.10;;;6.50;99.90;;;;;;5108839;28;20401;-84
2023/03/29 07:36:37;;;;;;;11.95;7.10;;;6.50;99.90;;;;;;5110357;28;20047;-85
2023/03/29 07:39:05;;;;;;;13.23;7.68;;;6.50;99.90;;;;;;5114110;27;20027;-84
2023/03/29 07:41:30;;;;;;;9.98;6.75;;;6.50;99.90;;;;;;5106014;28;20089;-84
2023/03/29 07:43:56;;;;;;;16.83;8.23;;;6.50;99.90;;;;;;5108258;28;20036;-80
2023/03/29 07:46:22;;;;;;;12.23;7.40;;;6.50;99.90;;;;;;5114048;27;20054;-85
2023/03/29 07:48:47;;;;;;;11.48;7.18;;;6.60;99.90;;;;;;5084246;28;20047;-86
2023/03/29 07:51:13;;;;;;;13.02;7.50;;;6.60;99.90;;;;;;5118282;27;20036;-87
2023/03/29 07:53:38;;;;;;;12.75;8.18;;;6.70;99.90;;;;;;5112389;28;20039;-86
2023/03/29 07:56:04;;;;;;;11.13;7.43;;;6.70;99.90;;;;;;5092443;28;20036;-86
2023/03/29 07:58:30;;;;;;;13.35;7.50;;;6.80;99.90;;;;;;5092460;28;20041;-87
2023/03/29 08:00:58;;;;;;;9.77;7.47;;;6.80;99.90;;;;;;5110980;28;20379;-86
2023/03/29 08:03:24;;;;;;;12.20;7.47;;;6.90;99.90;;;;;;5115658;27;20038;-86
2023/03/29 08:05:50;;;;;;;11.18;7.28;;;6.90;99.90;;;;;;5095592;28;20028;-86
2023/03/29 08:08:16;;;;;;;13.07;8.05;;;7.00;99.90;;;;;;5114368;27;20095;-87
2023/03/29 08:10:41;;;;;;;9.48;7.30;;;7.00;99.90;;;;;;5121081;27;20043;-86
2023/03/29 08:13:09;;;;;;;11.35;7.05;;;7.10;99.90;;;;;;5097798;28;20065;-86
2023/03/29 08:15:37;;;;;;;11.25;7.43;;;7.20;99.90;;;;;;5114999;27;20051;-83
2023/03/29 08:18:03;;;;;;;12.18;7.18;;;7.30;99.90;;;;;;5107286;28;20054;-85
2023/03/29 08:20:28;;;;;;;10.75;7.18;;;7.30;99.90;;;;;;5105372;28;20115;-86
2023/03/29 08:22:54;;;;;;;10.13;6.90;;;7.40;99.90;;;;;;5113983;28;20032;-85
2023/03/29 08:25:20;;;;;;;9.23;6.65;;;7.50;99.90;;;;;;5102952;28;20032;-86
2023/03/29 08:27:46;;;;;;;13.10;7.20;;;7.60;99.90;;;;;;5108759;28;20111;-86
2023/03/29 08:30:13;;;;;;;10.95;7.00;;;7.70;99.90;;;;;;5113716;27;20168;-86
2023/03/29 08:32:39;;;;;;;10.10;6.70;;;7.70;99.90;;;;;;5109932;28;20044;-86
2023/03/29 08:35:07;;;;;;;10.63;6.60;;;7.70;99.90;;;;;;5117644;27;20039;-86
2023/03/29 08:37:33;;;;;;;12.88;6.60;;;7.70;99.90;;;;;;5114499;27;20035;-87
2023/03/29 08:39:59;;;;;;;12.15;6.80;;;7.70;99.90;;;;;;5112221;27;20039;-87
2023/03/29 08:42:51;;;;;;;13.35;7.35;;;7.70;99.90;;;;;;5115875;27;20036;-85
2023/03/29 08:45:16;;;;;;;10.35;7.47;;;7.90;99.90;;;;;;5135890;27;20047;-85
2023/03/29 08:48:10;;;;;;;10.70;6.95;;;8.00;99.90;;;;;;5104268;27;20036;-86
2023/03/29 08:50:42;;;;;;;10.85;6.85;;;8.10;99.90;;;;;;5113648;27;20114;-87
2023/03/29 08:53:16;;;;;;;9.52;6.82;;;8.10;99.90;;;;;;5112132;27;20100;-87
2023/03/29 08:55:44;;;;;;;8.25;6.50;;;8.10;99.90;;;;;;5109263;28;20036;-86
2023/03/29 08:58:16;;;;;;;10.70;6.97;;;8.20;99.90;;;;;;5113119;28;20074;-86
2023/03/29 09:00:46;;;;;;;10.27;6.78;;;8.20;99.90;;;;;;5096561;28;20042;-87
2023/03/29 09:03:28;;;;;;;10.88;6.97;;;8.30;99.90;;;;;;5135900;27;20039;-85
2023/03/29 09:06:03;;;;;;;10.52;6.55;;;8.40;99.90;;;;;;5094300;28;20070;-85
2023/03/29 09:08:29;;;;;;;14.40;6.88;;;8.50;99.90;;;;;;5092652;28;20075;-85
2023/03/29 09:11:01;;;;;;;11.35;6.63;;;8.60;99.90;;;;;;5089807;28;20511;-85
2023/03/29 09:14:11;;;;;;;12.43;7.28;;;8.70;99.90;;;;;;5094984;28;20122;-84
2023/03/29 09:16:57;;;;;;;10.90;6.55;;;8.80;99.90;;;;;;5109741;28;20047;-83
2023/03/29 09:19:47;;;;;;;13.30;7.07;;;9.00;99.90;;;;;;5110121;28;20114;-87
2023/03/29 09:22:32;;;;;;;9.35;6.80;;;9.10;99.90;;;;;;5102050;28;20407;-86
2023/03/29 09:25:20;;;;;;;12.88;6.90;;;9.20;99.90;;;;;;5114711;28;20034;-87
2023/03/29 09:28:18;;;;;;;11.43;6.90;;;9.20;99.90;;;;;;5103713;28;20042;-85
2023/03/29 09:30:58;;;;;;;9.32;6.57;;;9.20;99.90;;;;;;5089938;28;20048;-84
2023/03/29 09:33:28;;;;;;;10.52;6.90;;;9.30;99.90;;;;;;5111799;27;20036;-83
2023/03/29 09:36:16;;;;;;;15.43;7.60;;;9.30;99.90;;;;;;5111514;27;20064;-85
2023/03/29 09:38:52;;;;;;;13.90;8.10;;;9.60;99.90;;;;;;5075228;28;20413;-88
2023/03/29 09:41:43;;;;;;;16.10;7.50;;;9.70;99.90;;;;;;5114082;27;20495;-85
2023/03/29 09:44:15;;;;;;;12.77;8.13;;;9.80;99.90;;;;;;5109894;28;20046;-84
2023/03/29 09:46:47;;;;;;;16.83;7.95;;;10.00;99.90;;;;;;5092256;28;20490;-83
2023/03/29 09:49:22;;;;;;;13.98;8.20;;;10.00;99.90;;;;;;5104781;28;20042;-84
2023/03/29 09:51:49;;;;;;;16.10;7.60;;;10.10;99.90;;;;;;5095626;27;20389;-85
2023/03/29 09:54:15;;;;;;;12.70;7.60;;;10.10;99.90;;;;;;5109246;27;20050;-85
2023/03/29 09:56:41;;;;;;;14.18;7.47;;;10.00;99.90;;;;;;5108856;27;20211;-86
2023/03/29 09:59:11;;;;;;;13.27;7.63;;;9.90;99.90;;;;;;5132734;27;20417;-85
2023/03/29 10:01:40;;;;;;;11.05;6.70;;;9.90;99.90;;;;;;5094489;27;20092;-83
2023/03/29 10:04:08;;;;;;;13.20;8.23;;;10.00;99.90;;;;;;5111827;27;20039;-84
2023/03/29 10:06:35;;;;;;;13.75;8.57;;;10.10;99.90;;;;;;5108302;28;20066;-85
2023/03/29 10:09:01;;;;;;;16.83;8.23;;;10.20;99.90;;;;;;5111657;27;20044;-83
2023/03/29 10:11:35;;;;;;;15.02;8.43;;;10.20;99.90;;;;;;5114809;27;20035;-86
2023/03/29 10:14:21;;;;;;;12.57;8.25;;;10.30;99.90;;;;;;5106035;27;20047;-86
2023/03/29 10:16:54;;;;;;;18.63;8.40;;;10.30;99.90;;;;;;5119432;27;20517;-81
2023/03/29 10:19:33;;;;;;;14.57;8.18;;;10.20;99.90;;;;;;5107849;27;20381;-81
2023/03/29 10:22:01;;;;;;;14.52;8.80;;;10.30;99.90;;;;;;5116067;28;20032;-80
2023/03/29 10:24:27;;;;;;;14.98;9.02;;;10.40;99.90;;;;;;5119834;27;20031;-81
2023/03/29 10:26:58;;;;;;;17.27;9.15;;;10.40;99.90;;;;;;5117927;27;20038;-80
2023/03/29 10:29:26;;;;;;;16.83;9.80;;;10.40;99.90;;;;;;5123305;27;20088;-80
2023/03/29 10:31:52;;;;;;;15.60;9.50;;;10.50;99.90;;;;;;5101452;28;20043;-80
2023/03/29 10:34:24;;;;;;;22.77;10.13;;;10.50;99.90;;;;;;5099582;27;20027;-83
2023/03/29 10:36:57;;;;;;;15.32;9.60;;;10.50;99.90;;;;;;5126505;27;20061;-82
2023/03/29 10:39:25;;;;;;;;;;;10.50;99.90;;;;;;5091877;28;20067;-82
2023/03/29 10:41:52;;;;;;;15.63;9.80;;;10.50;99.90;;;;;;5108265;28;19930;-83
2023/03/29 10:44:28;;;;;;;16.08;9.88;;;10.70;99.90;;;;;;5105246;28;20115;-82
2023/03/29 10:46:54;;;;;;;16.25;10.00;;;10.70;99.90;;;;;;5112439;28;20127;-82
2023/03/29 10:49:22;;;;;;;15.82;9.55;;;10.80;99.90;;;;;;5116216;27;20067;-82
2023/03/29 10:51:50;;;;;;;16.17;10.32;;;11.10;99.90;;;;;;5108322;27;20410;-83
2023/03/29 10:54:19;;;;;;;17.73;10.93;;;11.20;99.90;;;;;;5099760;28;20070;-83
2023/03/29 10:56:53;;;;;;;15.82;10.73;;;11.20;99.90;;;;;;5101066;28;20067;-82
2023/03/29 10:59:46;;;;;;;17.63;10.18;;;11.40;99.90;;;;;;5108829;27;20111;-82
2023/03/29 11:02:15;;;;;;;16.38;10.00;;;11.60;99.90;;;;;;5099702;27;20510;-82
2023/03/29 11:05:08;;;;;;;17.13;10.32;;;11.60;99.90;;;;;;5129791;27;20031;-82
2023/03/29 11:08:06;;;;;;;18.20;11.55;;;11.90;99.90;;;;;;5105171;27;20047;-82
2023/03/29 11:10:52;;;;;;;17.63;10.50;;;12.00;99.90;;;;;;5114451;27;20039;-82
2023/03/29 11:13:42;;;;;;;18.65;11.25;;;12.20;99.90;;;;;;5070801;28;20043;-81
2023/03/29 11:16:15;;;;;;;18.08;10.85;;;12.40;99.90;;;;;;5106735;27;20070;-81
2023/03/29 11:18:53;;;;;;;16.60;10.18;;;12.40;99.90;;;;;;5100094;27;20044;-82
2023/03/29 11:21:44;;;;;;;16.25;10.25;;;12.60;99.90;;;;;;5101100;27;20097;-82
2023/03/29 11:24:26;;;;;;;17.75;11.45;;;12.50;99.90;;;;;;5102789;27;20028;-81
2023/03/29 11:27:17;;;;;;;17.10;9.98;;;12.60;99.90;;;;;;5117188;27;20071;-82
2023/03/29 11:30:05;;;;;;;14.10;9.70;;;12.70;99.90;;;;;;5113015;28;20448;-82
2023/03/29 11:32:49;;;;;;;15.98;10.75;;;12.60;99.90;;;;;;5111458;28;20043;-82
2023/03/29 11:35:38;;;;;;;15.10;10.15;;;12.60;99.90;;;;;;5098486;28;20031;-82
2023/03/29 11:38:31;;;;;;;15.70;11.00;;;12.60;99.90;;;;;;5091457;28;20097;-85
2023/03/29 11:41:22;;;;;;;14.40;10.02;;;12.60;99.90;;;;;;5107072;28;20054;-81
2023/03/29 11:43:57;;;;;;;14.52;10.10;;;12.50;99.90;;;;;;5102132;28;20070;-78
2023/03/29 11:46:28;;;;;;;15.02;10.45;;;12.50;99.90;;;;;;5115506;28;20032;-79
2023/03/29 11:49:00;;;;;;;15.25;10.38;;;12.40;99.90;;;;;;5095493;28;20036;-79
2023/03/29 11:51:32;;;;;;;16.73;10.40;;;12.40;99.90;;;;;;5119513;28;20477;-79
2023/03/29 11:54:06;;;;;;;21.33;10.07;;;12.40;99.90;;;;;;5112074;28;20039;-83
2023/03/29 11:56:38;;;;;;;;;;;12.40;99.90;;;;;;5106709;28;20061;-85
2023/03/29 11:59:31;;;;;;;15.50;9.50;;;12.60;99.90;;;;;;5108616;28;20283;-80
2023/03/29 12:02:21;;;;;;;13.60;9.20;;;12.60;99.90;;;;;;5115085;28;20599;-79
2023/03/29 12:04:53;;;;;;;14.55;9.52;;;12.70;99.90;;;;;;5114677;28;20031;-79
2023/03/29 12:07:29;;;;;;;14.13;9.00;;;12.90;99.90;;;;;;5114809;28;20035;-79
2023/03/29 12:10:07;;;;;;;13.75;9.25;;;12.90;99.90;;;;;;5112229;28;20032;-78
2023/03/29 12:12:51;;;;;;;13.38;9.48;;;13.10;99.90;;;;;;5097653;28;20036;-82
2023/03/29 12:15:21;;;;;;;11.68;9.00;;;13.10;99.90;;;;;;5108446;28;20552;-78
2023/03/29 12:18:13;;;;;;;10.82;8.50;;;13.30;99.90;;;;;;5116399;28;20148;-80
2023/03/29 12:20:39;;;;;;;12.73;9.45;;;13.30;99.90;;;;;;5118076;28;20040;-79
2023/03/29 12:23:07;;;;;;;10.80;9.07;;;13.40;99.90;;;;;;5136696;27;20055;-79
2023/03/29 12:26:07;;;;;;;13.70;9.20;;;13.50;99.90;;;;;;5146169;27;20028;-79
2023/03/29 12:28:47;;;;;;;11.80;8.68;;;13.60;99.90;;;;;;5112496;27;20495;-81
2023/03/29 12:31:36;;;;;;;9.85;7.95;;;13.70;99.90;;;;;;5142433;27;20403;-79
2023/03/29 12:34:31;;;;;;;12.35;9.20;;;13.70;99.90;;;;;;5110849;28;20050;-80
2023/03/29 12:37:16;;;;;;;12.57;8.10;;;13.60;99.90;;;;;;5108760;28;20043;-82
2023/03/29 12:39:41;;;;;;;11.65;8.13;;;13.70;99.90;;;;;;5110754;28;20468;-82
2023/03/29 12:42:17;;;;;;;10.95;8.20;;;13.80;99.90;;;;;;5113178;28;20054;-82
2023/03/29 12:44:48;;;;;;;11.98;8.20;;;13.80;99.90;;;;;;5137334;27;20031;-82
2023/03/29 12:47:19;;;;;;;9.73;8.02;;;13.90;99.90;;;;;;5115049;28;20046;-81
2023/03/29 12:49:46;;;;;;;10.32;8.77;;;13.80;99.90;;;;;;5116695;27;20066;-82
2023/03/29 12:52:33;;;;;;;12.68;8.88;;;13.80;99.90;;;;;;5094380;28;20036;-82
2023/03/29 12:55:15;;;;;;;10.55;7.97;;;13.80;99.90;;;;;;5115658;28;20040;-81
2023/03/29 12:57:44;;;;;;;14.75;10.77;;;13.90;99.90;;;;;;5101246;28;20118;-82
2023/03/29 13:00:24;;;;;;;14.02;9.00;;;13.90;99.90;;;;;;5145820;27;20514;-82
2023/03/29 13:03:24;;;;;;;11.05;8.15;;;13.90;99.90;;;;;;5113803;28;20496;-82
2023/03/29 13:06:03;;;;;;;13.88;8.32;;;14.00;99.90;;;;;;5105009;28;20067;-80
2023/03/29 13:08:41;;;;;;;12.15;8.75;;;13.80;99.90;;;;;;5096341;28;20249;-78